Nearby METAR Reports

 

KC09 - Morris-Washburn, Illinois, USA
Distance from station: NW 9mi, 14km
Updated: Sun, 23-Apr-2017 8:35am CDT
Clear
Clear
 Wind from calm
Wind: Calm
Temperature: 52°F , 11°C
Dew Point: 30°F , -1°C
Humidity: 44%
Barometer: 30.16 inHg , 1021.3 hPa
Clouds: Clear
Visibility: 10 miles , 16 km
2017/04/23 13:35 KC09 231335Z AUTO 00000KT 10SM CLR 11/M01 A3016 RMK AO2 T01051007
KJOT - Joliet, Illinois, USA
Distance from station: NNE 13mi, 22km
Updated: Sun, 23-Apr-2017 8:35am CDT
Clear
Clear
 Wind from calm
Wind: Calm
Temperature: 52°F , 11°C
Dew Point: 32°F , 0°C
Humidity: 47%
Barometer: 30.16 inHg , 1021.3 hPa
Clouds: Clear
Visibility: 10 miles , 16 km
2017/04/23 13:35 KJOT 231335Z AUTO 00000KT 10SM CLR 11/00 A3016 RMK AO2 T01130000
 
KLOT - Romeoville/Chi, Illinois, USA
Distance from station: NNE 21mi, 33km
Updated: Sun, 23-Apr-2017 8:35am CDT
Clear
Clear
 Wind from calm
Wind: Calm
Temperature: 50°F , 10°C
Dew Point: 36°F , 2°C
Humidity: 58%
Barometer: 30.16 inHg , 1021.3 hPa
Clouds: Clear
Visibility: 10 miles , 16 km
2017/04/23 13:35 KLOT 231335Z AUTO 00000KT 10SM CLR 10/02 A3016 RMK AO2 T01030022
KIKK - Kankakee, Illinois, USA
Distance from station: SE 30mi, 48km
Updated: Sun, 23-Apr-2017 8:35am CDT
Clear
Clear
 Wind from calm
Wind: Calm
Temperature: 55°F , 13°C
Dew Point: 34°F , 1°C
Humidity: 44%
Barometer: 30.15 inHg , 1021 hPa
Clouds: Clear
Visibility: 10 miles , 16 km
2017/04/23 13:35 KIKK 231335Z AUTO 00000KT 10SM CLR 13/01 A3015 RMK AO2 T01330014
 
KARR - Chicago/Aurora, Illinois, USA
Distance from station: NNW 31mi, 50km
Updated: Sun, 23-Apr-2017 8:52am CDT
Clear
Clear
 Wind from calm
Wind: Calm
Temperature: 55°F , 13°C
Dew Point: 30°F , -1°C
Humidity: 38%
Barometer: 30.16 inHg , 1021.3 hPa
Clouds: Clear
Visibility: 10 miles , 16 km
2017/04/23 13:52 KARR 231352Z 00000KT 10SM CLR 13/M01 A3016 RMK AO2 SLP214 T01281006
KPNT - Pontiac, Illinois, USA
Distance from station: SSW 34mi, 54km
Updated: Sun, 23-Apr-2017 8:35am CDT
Clear
Clear
 Wind from NE
Wind: NE 3 mph , 6 km/h
Temperature: 54°F , 12°C
Dew Point: 32°F , 0°C
Humidity: 44%
Barometer: 30.16 inHg , 1021.3 hPa
Clouds: Clear
Visibility: 10 miles , 16 km
2017/04/23 13:35 KPNT 231335Z AUTO 04003KT 10SM CLR 12/00 A3016 RMK AO2 T01160001
 
KDPA - Chicago/Dupage, Illinois, USA
Distance from station: N 40mi, 64km
Updated: Sun, 23-Apr-2017 8:52am CDT
Clear
Clear
 Wind from calm
Wind: Calm
Temperature: 55°F , 13°C
Dew Point: 30°F , -1°C
Humidity: 38%
Barometer: 30.14 inHg , 1020.7 hPa
Clouds: Clear
Visibility: 10 miles , 16 km
2017/04/23 13:52 KDPA 231352Z 00000KT 10SM CLR 13/M01 A3014 RMK AO2 SLP209 T01281011
KIGQ - Chicago/Lansing, Illinois, USA
Distance from station: ENE 42mi, 67km
Updated: Sun, 23-Apr-2017 8:35am CDT
Clear
Clear
 Wind from calm
Wind: Calm
Temperature: 50°F , 10°C
Dew Point: 37°F , 3°C
Humidity: 62%
Barometer: 30.16 inHg , 1021.3 hPa
Clouds: Clear
Visibility: 10 miles , 16 km
2017/04/23 13:35 KIGQ 231335Z AUTO 00000KT 10SM CLR 10/03 A3016 RMK AO2 T01020026
 
KMDW - Chicago, Illinois, USA
Distance from station: NE 42mi, 67km
Updated: Sun, 23-Apr-2017 8:53am CDT
Few Clouds
Few Clouds
 Wind from calm
Wind: Calm
Temperature: 55°F , 13°C
Dew Point: 30°F , -1°C
Humidity: 38%
Barometer: 30.15 inHg , 1021 hPa
Clouds: Few Clouds
Visibility: 10 miles , 16 km
Cloud details: Few Clouds 25000 ft
2017/04/23 13:53 KMDW 231353Z 00000KT 10SM FEW250 13/M01 A3015 RMK AO2 SLP211 T01281011
KVYS - Peru, Illinois, USA
Distance from station: W 44mi, 71km
Updated: Sun, 23-Apr-2017 8:35am CDT
Clear
Clear
 Wind from calm
Wind: Calm
Temperature: 50°F , 10°C
Dew Point: 30°F , -1°C
Humidity: 47%
Barometer: 30.17 inHg , 1021.7 hPa
Clouds: Clear
Visibility: 10 miles , 16 km
2017/04/23 13:35 KVYS 231335Z AUTO 00000KT 10SM CLR 10/M01 A3017 RMK AO2 T00961013
 
KDKB - De Kalb, Illinois, USA
Distance from station: NNW 46mi, 74km
Updated: Sun, 23-Apr-2017 8:35am CDT
Clear
Clear
 Wind from W
Wind: W 3 mph , 6 km/h
Temperature: 54°F , 12°C
Dew Point: 30°F , -1°C
Humidity: 41%
Barometer: 30.16 inHg , 1021.3 hPa
Clouds: Clear
Visibility: 10 miles , 16 km
2017/04/23 13:35 KDKB 231335Z AUTO 28003KT 10SM CLR 12/M01 A3016 RMK AO2 T01211015
KORD - Chicago O'hare, Illinois, USA
Distance from station: NNE 48mi, 78km
Updated: Sun, 23-Apr-2017 8:51am CDT
Few Clouds
Few Clouds
 Wind from WSW
Wind: WSW 3 mph , 6 km/h
Temperature: 55°F , 13°C
Dew Point: 27°F , -3°C
Humidity: 33%
Barometer: 30.14 inHg , 1020.7 hPa
Clouds: Few Clouds
Visibility: 10 miles , 16 km
Cloud details: Few Clouds 25000 ft
2017/04/23 13:51 KORD 231351Z 25003KT 10SM FEW250 13/M03 A3014 RMK AO2 SLP207 T01281033
 
KGYY - Gary Regional, Indiana, USA
Distance from station: ENE 49mi, 80km
Updated: Sun, 23-Apr-2017 8:45am CDT
Clear
Clear
 Wind from calm
Wind: Calm
Temperature: 54°F , 12°C
Dew Point: 28°F , -2°C
Humidity: 38%
Barometer: 30.16 inHg , 1021.3 hPa
Clouds: Clear
Visibility: 15 miles , 24 km
2017/04/23 13:45 KGYY 231345Z 00000KT 15SM SKC 12/M02 A3016